sensor_id;sensor_type;location;lat;lon;timestamp;pressure;altitude;pressure_sealevel;temperature;humidity
77587;BME280;66744;49.716;17.158;2023-08-08T01:11:22;98980.16;;;15.07;68.45
77587;BME280;66744;49.716;17.158;2023-08-08T02:31:18;99001.59;;;14.79;67.71
77587;BME280;66744;49.716;17.158;2023-08-08T02:46:25;99010.66;;;14.80;67.35
77587;BME280;66744;49.716;17.158;2023-08-08T03:09:06;99035.56;;;14.62;67.85
77587;BME280;66744;49.716;17.158;2023-08-08T03:13:24;99035.13;;;14.63;68.26
77587;BME280;66744;49.716;17.158;2023-08-08T03:43:02;99057.38;;;14.41;68.77
77587;BME280;66744;49.716;17.158;2023-08-08T04:20:02;99068.38;;;14.23;69.67
77587;BME280;66744;49.716;17.158;2023-08-08T04:38:53;99061.69;;;14.61;68.67
77587;BME280;66744;49.716;17.158;2023-08-08T06:28:26;99100.66;;;16.96;62.49
77587;BME280;66744;49.716;17.158;2023-08-08T06:32:58;99105.66;;;16.92;63.75
77587;BME280;66744;49.716;17.158;2023-08-08T06:45:04;99113.63;;;16.75;61.77
77587;BME280;66744;49.716;17.158;2023-08-08T06:53:26;99105.81;;;16.74;63.00
77587;BME280;66744;49.716;17.158;2023-08-08T06:57:11;99100.00;;;16.86;63.20
77587;BME280;66744;49.716;17.158;2023-08-08T07:01:16;99105.75;;;16.97;62.11
77587;BME280;66744;49.716;17.158;2023-08-08T07:13:24;99115.44;;;17.31;61.74
77587;BME280;66744;49.716;17.158;2023-08-08T07:16:59;99118.22;;;17.31;60.73
77587;BME280;66744;49.716;17.158;2023-08-08T07:20:50;99102.03;;;17.30;61.21
77587;BME280;66744;49.716;17.158;2023-08-08T07:24:28;99108.19;;;17.34;61.04
77587;BME280;66744;49.716;17.158;2023-08-08T07:28:28;99099.25;;;17.44;60.18
77587;BME280;66744;49.716;17.158;2023-08-08T07:32:38;99103.16;;;17.52;60.30
77587;BME280;66744;49.716;17.158;2023-08-08T07:36:15;99091.88;;;17.70;60.32
77587;BME280;66744;49.716;17.158;2023-08-08T07:39:37;99091.09;;;17.70;57.35
77587;BME280;66744;49.716;17.158;2023-08-08T07:42:44;99097.31;;;17.80;59.66
77587;BME280;66744;49.716;17.158;2023-08-08T07:46:01;99095.31;;;17.80;58.95
77587;BME280;66744;49.716;17.158;2023-08-08T07:49:06;99084.81;;;17.69;59.76
77587;BME280;66744;49.716;17.158;2023-08-08T07:52:33;99090.38;;;17.69;59.04
77587;BME280;66744;49.716;17.158;2023-08-08T07:55:47;99090.16;;;17.73;58.75
77587;BME280;66744;49.716;17.158;2023-08-08T07:58:52;99096.78;;;17.75;58.11
77587;BME280;66744;49.716;17.158;2023-08-08T08:02:16;99097.25;;;17.74;58.23
77587;BME280;66744;49.716;17.158;2023-08-08T08:05:26;99093.31;;;17.81;59.02
77587;BME280;66744;49.716;17.158;2023-08-08T08:08:40;99103.28;;;17.87;58.40
77587;BME280;66744;49.716;17.158;2023-08-08T08:11:50;99099.81;;;17.92;58.57
77587;BME280;66744;49.716;17.158;2023-08-08T08:15:01;99096.63;;;17.85;58.46
77587;BME280;66744;49.716;17.158;2023-08-08T08:18:21;99097.72;;;17.87;58.52
77587;BME280;66744;49.716;17.158;2023-08-08T08:21:26;99102.19;;;17.85;58.62
77587;BME280;66744;49.716;17.158;2023-08-08T08:24:32;99107.88;;;17.90;58.66
77587;BME280;66744;49.716;17.158;2023-08-08T08:27:46;99095.00;;;17.93;58.77
77587;BME280;66744;49.716;17.158;2023-08-08T08:31:05;99095.56;;;17.97;58.38
77587;BME280;66744;49.716;17.158;2023-08-08T08:34:10;99103.44;;;17.98;57.17
77587;BME280;66744;49.716;17.158;2023-08-08T08:37:17;99084.25;;;18.00;58.28
77587;BME280;66744;49.716;17.158;2023-08-08T08:40:19;99097.56;;;18.11;59.02
77587;BME280;66744;49.716;17.158;2023-08-08T08:43:20;99100.94;;;18.20;58.86
77587;BME280;66744;49.716;17.158;2023-08-08T08:46:35;99106.59;;;18.26;58.50
77587;BME280;66744;49.716;17.158;2023-08-08T08:49:39;99090.78;;;18.17;57.12
77587;BME280;66744;49.716;17.158;2023-08-08T08:52:46;99090.06;;;18.17;56.09
77587;BME280;66744;49.716;17.158;2023-08-08T08:56:04;99090.31;;;18.19;56.56
77587;BME280;66744;49.716;17.158;2023-08-08T08:59:08;99089.81;;;18.20;57.40
77587;BME280;66744;49.716;17.158;2023-08-08T09:02:14;99096.47;;;18.23;57.25
77587;BME280;66744;49.716;17.158;2023-08-08T09:05:27;99095.97;;;18.24;57.01
77587;BME280;66744;49.716;17.158;2023-08-08T09:08:36;99092.69;;;18.26;57.87
77587;BME280;66744;49.716;17.158;2023-08-08T09:11:54;99098.09;;;18.35;58.05
77587;BME280;66744;49.716;17.158;2023-08-08T09:15:14;99097.59;;;18.51;58.08
77587;BME280;66744;49.716;17.158;2023-08-08T09:18:39;99097.47;;;18.60;57.14
77587;BME280;66744;49.716;17.158;2023-08-08T09:22:02;99091.47;;;18.67;56.44
77587;BME280;66744;49.716;17.158;2023-08-08T09:25:05;99081.09;;;18.68;56.50
77587;BME280;66744;49.716;17.158;2023-08-08T09:28:07;99097.25;;;18.64;57.17
77587;BME280;66744;49.716;17.158;2023-08-08T09:31:24;99091.38;;;18.62;56.51
77587;BME280;66744;49.716;17.158;2023-08-08T09:34:28;99088.41;;;18.65;57.89
77587;BME280;66744;49.716;17.158;2023-08-08T09:37:33;99091.75;;;18.69;56.50
77587;BME280;66744;49.716;17.158;2023-08-08T09:40:34;99088.84;;;18.58;57.26
77587;BME280;66744;49.716;17.158;2023-08-08T09:43:50;99091.38;;;18.62;57.04
77587;BME280;66744;49.716;17.158;2023-08-08T09:50:56;99097.59;;;18.51;55.98
77587;BME280;66744;49.716;17.158;2023-08-08T09:54:03;99088.31;;;18.40;57.20
77587;BME280;66744;49.716;17.158;2023-08-08T09:57:09;99095.69;;;18.43;57.77
77587;BME280;66744;49.716;17.158;2023-08-08T10:00:11;99089.41;;;18.48;57.72
77587;BME280;66744;49.716;17.158;2023-08-08T10:03:18;99085.69;;;18.51;57.54
77587;BME280;66744;49.716;17.158;2023-08-08T10:06:38;99083.94;;;18.53;57.20
77587;BME280;66744;49.716;17.158;2023-08-08T10:09:54;99078.03;;;18.46;56.03
77587;BME280;66744;49.716;17.158;2023-08-08T10:13:01;99073.22;;;18.46;56.43
77587;BME280;66744;49.716;17.158;2023-08-08T10:16:16;99078.50;;;18.44;56.29
77587;BME280;66744;49.716;17.158;2023-08-08T10:19:25;99076.88;;;18.52;56.13
77587;BME280;66744;49.716;17.158;2023-08-08T10:22:54;99069.06;;;18.56;56.27
77587;BME280;66744;49.716;17.158;2023-08-08T10:26:19;99087.63;;;18.65;55.65
77587;BME280;66744;49.716;17.158;2023-08-08T10:29:33;99081.09;;;18.68;56.04
77587;BME280;66744;49.716;17.158;2023-08-08T10:32:44;99063.56;;;18.62;57.15
77587;BME280;66744;49.716;17.158;2023-08-08T10:36:10;99060.16;;;18.72;55.98
77587;BME280;66744;49.716;17.158;2023-08-08T10:39:24;99056.81;;;18.68;56.44
77587;BME280;66744;49.716;17.158;2023-08-08T10:42:29;99049.84;;;18.78;56.88
77587;BME280;66744;49.716;17.158;2023-08-08T10:45:56;99043.63;;;18.89;55.65
77587;BME280;66744;49.716;17.158;2023-08-08T10:49:01;99049.94;;;18.90;55.89
77587;BME280;66744;49.716;17.158;2023-08-08T10:52:13;99056.13;;;18.99;55.63
77587;BME280;66744;49.716;17.158;2023-08-08T10:55:46;99038.00;;;19.09;54.70
77587;BME280;66744;49.716;17.158;2023-08-08T10:59:11;99035.22;;;19.09;54.77
77587;BME280;66744;49.716;17.158;2023-08-08T11:02:14;99038.06;;;19.15;53.89
77587;BME280;66744;49.716;17.158;2023-08-08T11:08:32;99046.41;;;19.40;53.31
77587;BME280;66744;49.716;17.158;2023-08-08T11:11:44;99036.28;;;19.43;54.47
77587;BME280;66744;49.716;17.158;2023-08-08T11:14:51;99037.63;;;19.53;54.43
77587;BME280;66744;49.716;17.158;2023-08-08T11:17:56;99041.25;;;19.65;53.33
77587;BME280;66744;49.716;17.158;2023-08-08T11:20:58;99027.84;;;19.69;53.71
77587;BME280;66744;49.716;17.158;2023-08-08T11:24:03;99023.56;;;19.68;53.02
77587;BME280;66744;49.716;17.158;2023-08-08T11:27:07;99020.56;;;19.77;53.48
77587;BME280;66744;49.716;17.158;2023-08-08T11:30:34;99006.84;;;19.73;52.85
77587;BME280;66744;49.716;17.158;2023-08-08T11:34:35;99019.28;;;19.78;51.28
77587;BME280;66744;49.716;17.158;2023-08-08T11:38:00;99012.19;;;19.77;50.54
77587;BME280;66744;49.716;17.158;2023-08-08T11:41:12;99019.63;;;19.91;50.51
77587;BME280;66744;49.716;17.158;2023-08-08T11:44:20;99009.53;;;19.99;51.40
77587;BME280;66744;49.716;17.158;2023-08-08T11:47:41;99011.06;;;20.00;50.89
77587;BME280;66744;49.716;17.158;2023-08-08T11:51:08;98996.66;;;20.07;52.26
77587;BME280;66744;49.716;17.158;2023-08-08T11:54:13;99015.22;;;20.21;51.14
77587;BME280;66744;49.716;17.158;2023-08-08T11:57:19;99002.75;;;20.17;50.12
77587;BME280;66744;49.716;17.158;2023-08-08T12:00:55;99006.84;;;20.21;48.92
77587;BME280;66744;49.716;17.158;2023-08-08T12:04:20;99002.28;;;20.18;51.10
77587;BME280;66744;49.716;17.158;2023-08-08T12:07:32;99001.50;;;20.18;52.04
77587;BME280;66744;49.716;17.158;2023-08-08T12:11:19;98991.69;;;20.28;51.30
77587;BME280;66744;49.716;17.158;2023-08-08T12:14:32;99007.91;;;20.29;52.51
77587;BME280;66744;49.716;17.158;2023-08-08T12:17:37;98985.09;;;20.31;52.61
77587;BME280;66744;49.716;17.158;2023-08-08T12:20:41;98995.72;;;20.27;52.06
77587;BME280;66744;49.716;17.158;2023-08-08T12:24:18;98987.94;;;20.47;53.21
77587;BME280;66744;49.716;17.158;2023-08-08T12:27:25;98988.19;;;20.55;50.36
77587;BME280;66744;49.716;17.158;2023-08-08T12:30:40;98991.53;;;20.65;50.37
77587;BME280;66744;49.716;17.158;2023-08-08T12:33:57;98987.72;;;20.73;48.83
77587;BME280;66744;49.716;17.158;2023-08-08T12:37:06;98985.22;;;20.86;50.64
77587;BME280;66744;49.716;17.158;2023-08-08T12:40:20;98984.97;;;20.90;49.35
77587;BME280;66744;49.716;17.158;2023-08-08T12:43:25;98981.66;;;20.91;47.76
77587;BME280;66744;49.716;17.158;2023-08-08T12:46:42;98993.09;;;20.88;47.03
77587;BME280;66744;49.716;17.158;2023-08-08T12:49:49;99006.25;;;20.76;48.10
77587;BME280;66744;49.716;17.158;2023-08-08T12:52:50;98993.78;;;20.55;51.57
77587;BME280;66744;49.716;17.158;2023-08-08T12:55:55;98993.53;;;20.47;52.72
77587;BME280;66744;49.716;17.158;2023-08-08T12:59:01;98991.75;;;20.50;53.85
77587;BME280;66744;49.716;17.158;2023-08-08T13:02:09;98986.69;;;20.48;52.38
77587;BME280;66744;49.716;17.158;2023-08-08T13:05:16;98984.63;;;20.43;50.14
77587;BME280;66744;49.716;17.158;2023-08-08T13:08:18;98983.59;;;20.41;48.25
77587;BME280;66744;49.716;17.158;2023-08-08T13:11:51;98983.13;;;20.54;48.75
77587;BME280;66744;49.716;17.158;2023-08-08T13:14:56;98985.94;;;20.59;49.24
77587;BME280;66744;49.716;17.158;2023-08-08T13:18:04;98981.38;;;20.73;46.07
77587;BME280;66744;49.716;17.158;2023-08-08T13:21:06;98982.16;;;20.73;45.04
77587;BME280;66744;49.716;17.158;2023-08-08T13:24:37;98982.13;;;20.62;45.57
77587;BME280;66744;49.716;17.158;2023-08-08T13:28:12;98989.75;;;20.67;45.78
77587;BME280;66744;49.716;17.158;2023-08-08T13:31:18;98969.47;;;20.78;45.24
77587;BME280;66744;49.716;17.158;2023-08-08T13:34:20;98976.31;;;20.82;46.55
77587;BME280;66744;49.716;17.158;2023-08-08T13:37:23;98971.25;;;20.92;45.64
77587;BME280;66744;49.716;17.158;2023-08-08T13:40:27;98959.84;;;20.84;44.33
77587;BME280;66744;49.716;17.158;2023-08-08T13:43:36;98946.91;;;20.92;43.66
77587;BME280;66744;49.716;17.158;2023-08-08T13:46:49;98961.63;;;20.93;42.88
77587;BME280;66744;49.716;17.158;2023-08-08T13:50:01;98955.28;;;20.92;42.86
77587;BME280;66744;49.716;17.158;2023-08-08T13:53:04;98952.72;;;20.94;43.77
77587;BME280;66744;49.716;17.158;2023-08-08T13:56:08;98938.75;;;20.89;43.05
77587;BME280;66744;49.716;17.158;2023-08-08T13:59:14;98939.53;;;20.84;41.69
77587;BME280;66744;49.716;17.158;2023-08-08T14:02:23;98927.31;;;20.76;42.01
77587;BME280;66744;49.716;17.158;2023-08-08T14:05:33;98926.31;;;20.73;41.57
77587;BME280;66744;49.716;17.158;2023-08-08T14:08:38;98924.03;;;20.77;42.24
77587;BME280;66744;49.716;17.158;2023-08-08T14:11:42;98927.59;;;20.83;43.00
77587;BME280;66744;49.716;17.158;2023-08-08T14:14:55;98921.47;;;20.79;44.22
77587;BME280;66744;49.716;17.158;2023-08-08T14:18:06;98903.47;;;20.80;43.94
77587;BME280;66744;49.716;17.158;2023-08-08T14:21:17;98911.34;;;20.93;43.55
77587;BME280;66744;49.716;17.158;2023-08-08T14:24:50;98926.59;;;21.09;44.83
77587;BME280;66744;49.716;17.158;2023-08-08T14:28:11;98929.91;;;21.13;43.73
77587;BME280;66744;49.716;17.158;2023-08-08T14:31:21;98938.75;;;21.05;43.80
77587;BME280;66744;49.716;17.158;2023-08-08T14:34:59;98930.38;;;20.94;44.70
77587;BME280;66744;49.716;17.158;2023-08-08T14:38:04;98925.31;;;20.98;45.76
77587;BME280;66744;49.716;17.158;2023-08-08T14:41:08;98928.09;;;20.98;45.11
77587;BME280;66744;49.716;17.158;2023-08-08T14:44:19;98924.03;;;20.88;45.24
77587;BME280;66744;49.716;17.158;2023-08-08T14:47:47;98919.97;;;20.89;43.99
77587;BME280;66744;49.716;17.158;2023-08-08T14:50:51;98923.78;;;20.86;45.87
77587;BME280;66744;49.716;17.158;2023-08-08T14:53:55;98921.75;;;20.92;46.13
77587;BME280;66744;49.716;17.158;2023-08-08T14:56:56;98910.06;;;20.94;45.85
77587;BME280;66744;49.716;17.158;2023-08-08T14:59:59;98925.84;;;21.08;46.16
77587;BME280;66744;49.716;17.158;2023-08-08T15:03:04;98912.13;;;21.10;46.30
77587;BME280;66744;49.716;17.158;2023-08-08T15:06:08;98924.31;;;21.13;45.49
77587;BME280;66744;49.716;17.158;2023-08-08T15:09:18;98915.16;;;21.12;44.22
77587;BME280;66744;49.716;17.158;2023-08-08T15:12:28;98914.13;;;21.15;43.83
77587;BME280;66744;49.716;17.158;2023-08-08T15:15:30;98917.94;;;21.23;44.53
77587;BME280;66744;49.716;17.158;2023-08-08T15:18:32;98913.88;;;21.19;44.40
77587;BME280;66744;49.716;17.158;2023-08-08T15:21:33;98900.94;;;21.16;45.73
77587;BME280;66744;49.716;17.158;2023-08-08T15:24:42;98912.84;;;21.27;44.97
77587;BME280;66744;49.716;17.158;2023-08-08T15:27:44;98910.81;;;21.28;43.68
77587;BME280;66744;49.716;17.158;2023-08-08T15:30:49;98907.78;;;21.26;44.15
77587;BME280;66744;49.716;17.158;2023-08-08T15:33:53;98907.25;;;21.33;45.25
77587;BME280;66744;49.716;17.158;2023-08-08T15:36:57;98906.50;;;21.38;45.91
77587;BME280;66744;49.716;17.158;2023-08-08T15:40:02;98900.91;;;21.38;45.97
77587;BME280;66744;49.716;17.158;2023-08-08T15:43:25;98898.34;;;21.40;45.62
77587;BME280;66744;49.716;17.158;2023-08-08T15:46:44;98896.06;;;21.44;44.61
77587;BME280;66744;49.716;17.158;2023-08-08T15:50:01;98898.88;;;21.44;44.24
77587;BME280;66744;49.716;17.158;2023-08-08T15:53:10;98907.25;;;21.44;44.92
77587;BME280;66744;49.716;17.158;2023-08-08T15:56:21;98902.16;;;21.42;46.32
77587;BME280;66744;49.716;17.158;2023-08-08T15:59:32;98898.38;;;21.29;45.05
77587;BME280;66744;49.716;17.158;2023-08-08T16:02:41;98908.53;;;21.26;46.10
77587;BME280;66744;49.716;17.158;2023-08-08T16:06:15;98911.06;;;21.30;45.92
77587;BME280;66744;49.716;17.158;2023-08-08T16:09:19;98922.03;;;21.22;46.97
77587;BME280;66744;49.716;17.158;2023-08-08T16:12:30;98913.38;;;21.15;47.85
77587;BME280;66744;49.716;17.158;2023-08-08T16:15:39;98918.47;;;21.05;47.41
77587;BME280;66744;49.716;17.158;2023-08-08T16:19:11;98915.13;;;21.06;47.71
77587;BME280;66744;49.716;17.158;2023-08-08T16:22:40;98927.84;;;21.08;47.91
77587;BME280;66744;49.716;17.158;2023-08-08T16:26:15;98921.22;;;20.99;48.81
77587;BME280;66744;49.716;17.158;2023-08-08T16:29:49;98922.25;;;20.85;48.88
77587;BME280;66744;49.716;17.158;2023-08-08T16:33:19;98924.81;;;20.83;49.56
77587;BME280;66744;49.716;17.158;2023-08-08T16:36:57;98921.47;;;20.85;49.91
77587;BME280;66744;49.716;17.158;2023-08-08T16:40:23;98923.03;;;20.69;49.68
77587;BME280;66744;49.716;17.158;2023-08-08T16:43:25;98925.53;;;20.62;49.31
77587;BME280;66744;49.716;17.158;2023-08-08T16:46:42;98908.78;;;20.50;51.45
77587;BME280;66744;49.716;17.158;2023-08-08T16:49:45;98908.50;;;20.43;51.11
77587;BME280;66744;49.716;17.158;2023-08-08T16:53:03;98918.94;;;20.48;51.21
77587;BME280;66744;49.716;17.158;2023-08-08T16:56:07;98902.91;;;20.43;52.08
77587;BME280;66744;49.716;17.158;2023-08-08T16:59:22;98910.03;;;20.44;52.69
77587;BME280;66744;49.716;17.158;2023-08-08T17:06:43;98921.19;;;20.49;52.64
77587;BME280;66744;49.716;17.158;2023-08-08T17:09:45;98921.19;;;20.49;52.71
77587;BME280;66744;49.716;17.158;2023-08-08T17:12:47;98910.53;;;20.37;52.94
77587;BME280;66744;49.716;17.158;2023-08-08T17:15:48;98930.31;;;20.39;53.58
77587;BME280;66744;49.716;17.158;2023-08-08T17:18:52;98913.56;;;20.33;53.67
77587;BME280;66744;49.716;17.158;2023-08-08T17:21:59;98929.31;;;20.36;54.06
77587;BME280;66744;49.716;17.158;2023-08-08T17:25:04;98922.91;;;20.25;52.67
77587;BME280;66744;49.716;17.158;2023-08-08T17:28:08;98921.63;;;20.20;54.09
77587;BME280;66744;49.716;17.158;2023-08-08T17:31:13;98919.34;;;20.13;52.89
77587;BME280;66744;49.716;17.158;2023-08-08T17:34:18;98926.66;;;20.11;53.92
77587;BME280;66744;49.716;17.158;2023-08-08T17:37:26;98921.34;;;20.13;53.87
77587;BME280;66744;49.716;17.158;2023-08-08T17:40:35;98926.94;;;20.13;53.54
77587;BME280;66744;49.716;17.158;2023-08-08T17:43:44;98933.75;;;20.06;52.35
77587;BME280;66744;49.716;17.158;2023-08-08T17:46:50;98946.44;;;20.07;52.99
77587;BME280;66744;49.716;17.158;2023-08-08T17:49:52;98943.38;;;20.05;52.02
77587;BME280;66744;49.716;17.158;2023-08-08T17:53:06;98933.72;;;19.95;51.66
77587;BME280;66744;49.716;17.158;2023-08-08T17:56:11;98945.09;;;19.91;51.50
77587;BME280;66744;49.716;17.158;2023-08-08T17:59:27;98950.91;;;19.88;52.34
77587;BME280;66744;49.716;17.158;2023-08-08T18:02:47;98936.44;;;19.84;52.81
77587;BME280;66744;49.716;17.158;2023-08-08T18:06:13;98937.22;;;19.84;51.72
77587;BME280;66744;49.716;17.158;2023-08-08T18:09:24;98940.50;;;19.83;51.92
77587;BME280;66744;49.716;17.158;2023-08-08T18:12:45;98931.38;;;19.82;51.65
77587;BME280;66744;49.716;17.158;2023-08-08T18:15:59;98939.22;;;19.84;51.17
77587;BME280;66744;49.716;17.158;2023-08-08T18:19:12;98941.50;;;19.80;51.77
77587;BME280;66744;49.716;17.158;2023-08-08T18:22:34;98937.72;;;19.83;51.13
77587;BME280;66744;49.716;17.158;2023-08-08T18:25:55;98940.22;;;19.81;51.23
77587;BME280;66744;49.716;17.158;2023-08-08T18:29:17;98933.63;;;19.78;51.64
77587;BME280;66744;49.716;17.158;2023-08-08T18:32:30;98946.56;;;19.81;51.97
77587;BME280;66744;49.716;17.158;2023-08-08T18:36:24;98949.84;;;19.74;51.84
77587;BME280;66744;49.716;17.158;2023-08-08T18:43:27;98952.31;;;19.61;51.44
77587;BME280;66744;49.716;17.158;2023-08-08T18:46:31;98970.31;;;19.66;52.42
77587;BME280;66744;49.716;17.158;2023-08-08T18:49:53;98962.41;;;19.59;52.41
77587;BME280;66744;49.716;17.158;2023-08-08T18:53:00;98967.47;;;19.55;51.91
77587;BME280;66744;49.716;17.158;2023-08-08T18:56:35;98969.00;;;19.56;53.15
77587;BME280;66744;49.716;17.158;2023-08-08T18:59:51;98972.25;;;19.54;52.95
77587;BME280;66744;49.716;17.158;2023-08-08T19:03:27;98969.97;;;19.53;54.31
77587;BME280;66744;49.716;17.158;2023-08-08T19:06:44;98974.00;;;19.46;54.06
77587;BME280;66744;49.716;17.158;2023-08-08T19:09:48;98973.66;;;19.38;54.09
77587;BME280;66744;49.716;17.158;2023-08-08T19:13:01;98971.28;;;19.26;54.28
77587;BME280;66744;49.716;17.158;2023-08-08T19:16:31;98990.19;;;19.16;55.22
77587;BME280;66744;49.716;17.158;2023-08-08T19:20:05;98970.88;;;19.07;55.29
77587;BME280;66744;49.716;17.158;2023-08-08T19:23:30;98972.59;;;18.99;56.28
77587;BME280;66744;49.716;17.158;2023-08-08T19:27:03;98969.78;;;18.94;55.78
77587;BME280;66744;49.716;17.158;2023-08-08T19:30:15;98963.44;;;18.93;55.73
77587;BME280;66744;49.716;17.158;2023-08-08T19:33:44;98969.22;;;18.90;56.51
77587;BME280;66744;49.716;17.158;2023-08-08T19:36:56;98968.44;;;18.89;56.39
77587;BME280;66744;49.716;17.158;2023-08-08T19:39:57;98968.22;;;18.93;56.42
77587;BME280;66744;49.716;17.158;2023-08-08T19:43:16;98957.00;;;18.81;56.84
77587;BME280;66744;49.716;17.158;2023-08-08T19:46:28;98971.47;;;18.85;57.53
77587;BME280;66744;49.716;17.158;2023-08-08T19:49:33;98962.78;;;18.78;57.42
77587;BME280;66744;49.716;17.158;2023-08-08T19:52:35;98974.69;;;18.78;57.85
77587;BME280;66744;49.716;17.158;2023-08-08T19:55:51;98963.16;;;18.65;57.87
77587;BME280;66744;49.716;17.158;2023-08-08T19:59:12;98971.31;;;18.69;58.50
77587;BME280;66744;49.716;17.158;2023-08-08T20:02:15;98956.09;;;18.64;57.91
77587;BME280;66744;49.716;17.158;2023-08-08T20:05:19;98975.84;;;18.66;58.34
77587;BME280;66744;49.716;17.158;2023-08-08T20:08:21;98981.66;;;18.68;58.40
77587;BME280;66744;49.716;17.158;2023-08-08T20:11:25;98980.31;;;18.58;58.24
77587;BME280;66744;49.716;17.158;2023-08-08T20:14:39;98985.88;;;18.38;59.26
77587;BME280;66744;49.716;17.158;2023-08-08T20:17:43;98992.91;;;18.33;59.45
77587;BME280;66744;49.716;17.158;2023-08-08T20:20:56;98990.28;;;18.24;60.03
77587;BME280;66744;49.716;17.158;2023-08-08T20:24:02;98984.09;;;18.15;60.43
77587;BME280;66744;49.716;17.158;2023-08-08T20:27:29;98987.31;;;18.08;60.60
77587;BME280;66744;49.716;17.158;2023-08-08T20:30:57;98989.78;;;18.06;61.34
77587;BME280;66744;49.716;17.158;2023-08-08T20:34:02;98992.38;;;18.09;61.69
77587;BME280;66744;49.716;17.158;2023-08-08T20:37:05;98995.41;;;18.11;61.71
77587;BME280;66744;49.716;17.158;2023-08-08T20:40:37;98988.53;;;18.07;61.27
77587;BME280;66744;49.716;17.158;2023-08-08T20:43:38;98978.34;;;17.98;61.67
77587;BME280;66744;49.716;17.158;2023-08-08T20:46:44;98991.06;;;18.05;62.93
77587;BME280;66744;49.716;17.158;2023-08-08T20:49:48;98984.94;;;18.01;61.75
77587;BME280;66744;49.716;17.158;2023-08-08T20:52:53;98984.78;;;18.10;62.64
77587;BME280;66744;49.716;17.158;2023-08-08T20:56:00;98983.50;;;18.05;62.87
77587;BME280;66744;49.716;17.158;2023-08-08T20:59:14;98978.91;;;18.02;62.71
77587;BME280;66744;49.716;17.158;2023-08-08T21:02:15;98983.53;;;17.91;63.10
77587;BME280;66744;49.716;17.158;2023-08-08T21:05:19;98988.88;;;17.94;62.75
77587;BME280;66744;49.716;17.158;2023-08-08T21:08:21;98979.91;;;17.85;63.29
77587;BME280;66744;49.716;17.158;2023-08-08T21:12:11;98971.16;;;17.71;63.20
77587;BME280;66744;49.716;17.158;2023-08-08T21:15:21;98979.63;;;17.62;63.75
77587;BME280;66744;49.716;17.158;2023-08-08T21:18:25;98975.31;;;17.61;64.22
77587;BME280;66744;49.716;17.158;2023-08-08T21:21:27;98980.31;;;17.57;64.98
77587;BME280;66744;49.716;17.158;2023-08-08T21:24:43;98988.03;;;17.53;65.21
77587;BME280;66744;49.716;17.158;2023-08-08T21:27:44;98990.25;;;17.49;64.50
77587;BME280;66744;49.716;17.158;2023-08-08T21:30:46;98980.59;;;17.45;64.90
77587;BME280;66744;49.716;17.158;2023-08-08T21:34:15;98980.94;;;17.52;64.99
77587;BME280;66744;49.716;17.158;2023-08-08T21:37:34;98970.34;;;17.51;65.03
77587;BME280;66744;49.716;17.158;2023-08-08T21:40:41;98973.38;;;17.53;65.43
77587;BME280;66744;49.716;17.158;2023-08-08T21:43:46;98978.88;;;17.47;66.41
77587;BME280;66744;49.716;17.158;2023-08-08T21:46:55;98971.88;;;17.37;66.69
77587;BME280;66744;49.716;17.158;2023-08-08T21:49:57;98983.56;;;17.41;66.76
77587;BME280;66744;49.716;17.158;2023-08-08T21:53:13;98976.19;;;17.38;67.76
77587;BME280;66744;49.716;17.158;2023-08-08T21:56:15;98978.41;;;17.34;67.08
77587;BME280;66744;49.716;17.158;2023-08-08T21:59:19;98979.16;;;17.35;66.87
77587;BME280;66744;49.716;17.158;2023-08-08T22:02:31;98975.34;;;17.32;67.82
77587;BME280;66744;49.716;17.158;2023-08-08T22:05:48;98977.00;;;17.24;67.58
77587;BME280;66744;49.716;17.158;2023-08-08T22:08:57;98967.25;;;17.14;68.29
77587;BME280;66744;49.716;17.158;2023-08-08T22:16:34;98976.91;;;17.18;68.66
77587;BME280;66744;49.716;17.158;2023-08-08T22:19:38;98971.84;;;17.17;68.54
77587;BME280;66744;49.716;17.158;2023-08-08T22:22:46;98972.13;;;17.19;67.81
77587;BME280;66744;49.716;17.158;2023-08-08T22:25:58;98979.38;;;17.16;68.75
77587;BME280;66744;49.716;17.158;2023-08-08T22:29:05;98975.66;;;17.19;67.53
77587;BME280;66744;49.716;17.158;2023-08-08T22:32:27;98966.59;;;17.19;67.91
77587;BME280;66744;49.716;17.158;2023-08-08T22:35:32;98964.34;;;17.23;67.94
77587;BME280;66744;49.716;17.158;2023-08-08T22:38:33;98973.25;;;17.27;67.99
77587;BME280;66744;49.716;17.158;2023-08-08T22:41:40;98966.75;;;17.30;67.82
77587;BME280;66744;49.716;17.158;2023-08-08T22:44:54;98972.09;;;17.34;67.31
77587;BME280;66744;49.716;17.158;2023-08-08T22:48:02;98975.16;;;17.36;67.82
77587;BME280;66744;49.716;17.158;2023-08-08T22:51:09;98970.38;;;17.36;67.65
77587;BME280;66744;49.716;17.158;2023-08-08T22:54:42;98983.66;;;17.47;68.30
77587;BME280;66744;49.716;17.158;2023-08-08T22:57:46;98983.84;;;17.43;67.79
77587;BME280;66744;49.716;17.158;2023-08-08T23:00:48;98972.84;;;17.34;68.92
77587;BME280;66744;49.716;17.158;2023-08-08T23:03:49;98965.97;;;17.30;67.90
77587;BME280;66744;49.716;17.158;2023-08-08T23:06:54;98978.03;;;17.27;68.20
77587;BME280;66744;49.716;17.158;2023-08-08T23:09:55;98970.28;;;17.31;69.43
77587;BME280;66744;49.716;17.158;2023-08-08T23:12:57;98968.19;;;17.26;69.76
77587;BME280;66744;49.716;17.158;2023-08-08T23:16:00;98978.91;;;17.33;68.87
77587;BME280;66744;49.716;17.158;2023-08-08T23:19:02;98972.78;;;17.29;68.85
77587;BME280;66744;49.716;17.158;2023-08-08T23:22:03;98972.50;;;17.27;68.80
77587;BME280;66744;49.716;17.158;2023-08-08T23:25:05;98967.81;;;17.18;69.27
77587;BME280;66744;49.716;17.158;2023-08-08T23:28:07;98966.69;;;17.10;69.72
77587;BME280;66744;49.716;17.158;2023-08-08T23:31:32;98966.13;;;17.06;70.43
77587;BME280;66744;49.716;17.158;2023-08-08T23:34:34;98973.94;;;17.07;70.85